Mytilini, Greece

2:28 PM EEST on August 25, 2016 (GMT +0300)
Odysseas Elytis | | Change Station

Elev 16 ft 39.05 °N, 26.60 °E | Updated 8 minutes ago

Partly Cloudy
Partly Cloudy
86 °F
Feels Like 90 °F
N
9
Wind Variable Wind from North

Today
High -- | Low -- °F
--% Chance of Precip.
Yesterday
High -- | Low -- °F
Precip. -- in
Pressure 29.83 in
Visibility 6.2 miles
Clouds Few 2000 ft
Heat Index 90 °F
Dew Point 70 °F
Humidity 58%
Rainfall 0.00 in
Snow Depth Not available.
6:36 AM 7:54 PM
Waning Gibbous, 46% visible
METAR LGMT 251120Z 35008KT 9999 FEW020 30/21 Q1010
Pressure 29.83 in
Visibility 6.2 miles
Clouds Few 2000 ft
Heat Index 90 °F
Dew Point 70 °F
Humidity 58%
Rainfall 0.00 in
Snow Depth Not available.
6:36 AM 7:54 PM
Waning Gibbous, 46% visible
METAR LGMT 251120Z 35008KT 9999 FEW020 30/21 Q1010

10-Day Weather Forecast

×

Almanac

Astronomy

Aug. 25, 2016 Rise Set
Actual Time
Civil Twilight
Nautical Twilight
Astronomical Twilight
Moon
Length of Visible Light
Length of Day
Tomorrow will be .
, % of the Moon is Illuminated

Today's Extremes

Country Highs Country Lows

Community

WunderPhotos

Upload Photos

1,934,822 photos uploaded!

WunderBlog® & News

Nearby

Air Quality

  Air Quality AQ Index Pollutant
Not available.

Snow Depth

Station Depth Elevation

Earthquake Activity

City Distance Mag. Time & Date
Minimum magnitude displayed is 2.5.

Coastal Water Temperatures

Place Temperature

Stations

Nearby Weather Stations

Station Location Temp. Windchill Dew Point Humidity Wind Precip. Elev Updated Type